createdAt,value
2022-08-24T00:00:23.826Z,20.50
2022-08-24T00:07:17.957Z,20.30
2022-08-24T00:14:11.936Z,20.10
2022-08-24T00:20:54.570Z,19.70
2022-08-24T00:27:37.825Z,19.50
2022-08-24T00:34:20.292Z,19.60
2022-08-24T00:41:04.356Z,19.50
2022-08-24T00:47:51.724Z,19.50
2022-08-24T00:54:45.929Z,19.50
2022-08-24T01:01:29.345Z,19.40
2022-08-24T01:08:12.801Z,19.10
2022-08-24T01:14:58.100Z,19.10
2022-08-24T01:21:57.366Z,19.00
2022-08-24T01:28:42.252Z,19.00
2022-08-24T01:35:25.398Z,18.90
2022-08-24T01:42:07.942Z,18.80
2022-08-24T01:48:50.703Z,18.60
2022-08-24T01:55:33.765Z,18.50
2022-08-24T02:02:28.686Z,18.40
2022-08-24T02:09:12.261Z,18.40
2022-08-24T02:15:54.761Z,18.20
2022-08-24T02:22:37.330Z,18.00
2022-08-24T02:29:20.007Z,17.80
2022-08-24T02:36:03.013Z,17.80
2022-08-24T02:42:46.576Z,17.80
2022-08-24T02:49:28.971Z,17.70
2022-08-24T02:56:11.726Z,17.50
2022-08-24T03:02:54.907Z,17.50
2022-08-24T03:09:37.960Z,17.30
2022-08-24T03:16:20.419Z,17.30
2022-08-24T03:23:04.270Z,17.20
2022-08-24T03:29:46.889Z,17.30
2022-08-24T03:36:29.663Z,17.20
2022-08-24T03:43:32.007Z,17.30
2022-08-24T03:50:15.150Z,17.30
2022-08-24T03:56:58.761Z,17.10
2022-08-24T04:03:44.418Z,17.20
2022-08-24T04:10:28.771Z,17.20
2022-08-24T04:17:12.490Z,17.30
2022-08-24T04:23:59.380Z,17.20
2022-08-24T04:30:43.717Z,17.30
2022-08-24T04:37:29.122Z,17.40
2022-08-24T04:44:12.646Z,17.40
2022-08-24T04:50:55.147Z,17.40
2022-08-24T04:57:38.267Z,17.50
2022-08-24T05:04:21.134Z,17.60
2022-08-24T05:11:08.246Z,17.80
2022-08-24T05:17:51.519Z,18.00
2022-08-24T05:24:34.589Z,18.30
2022-08-24T05:31:21.175Z,18.60
2022-08-24T05:38:04.334Z,18.80
2022-08-24T05:44:52.347Z,18.90
2022-08-24T05:51:37.128Z,19.60
2022-08-24T05:58:31.037Z,20.20
2022-08-24T06:05:17.851Z,21.00
2022-08-24T06:12:02.921Z,23.70
2022-08-24T06:18:45.899Z,26.90
2022-08-24T06:25:47.261Z,28.30
2022-08-24T06:32:30.316Z,29.10
2022-08-24T06:39:13.271Z,29.80
2022-08-24T06:46:00.901Z,30.80
2022-08-24T06:52:46.721Z,30.60
2022-08-24T06:59:29.200Z,31.70
2022-08-24T07:06:13.703Z,33.40
2022-08-24T07:12:57.561Z,33.60
2022-08-24T07:19:40.244Z,35.30
2022-08-24T07:26:27.061Z,36.10
2022-08-24T07:33:10.286Z,37.10
2022-08-24T07:39:54.516Z,37.20
2022-08-24T07:46:38.920Z,37.40
2022-08-24T07:53:27.958Z,38.40
2022-08-24T08:00:19.484Z,38.10
2022-08-24T08:07:07.418Z,38.10
2022-08-24T08:13:51.475Z,37.50
2022-08-24T08:20:36.662Z,37.50
2022-08-24T08:27:21.740Z,37.90
2022-08-24T08:34:05.097Z,38.50
2022-08-24T08:41:00.215Z,38.90
2022-08-24T08:55:21.137Z,40.00
2022-08-24T09:02:30.418Z,39.90
2022-08-24T09:09:35.762Z,39.30
2022-08-24T09:16:31.482Z,39.30
2022-08-24T09:23:32.227Z,37.90
2022-08-24T09:30:23.414Z,39.20
2022-08-24T09:37:31.459Z,38.50
2022-08-24T09:44:22.723Z,39.60
2022-08-24T09:51:34.201Z,39.40
2022-08-24T09:58:31.667Z,41.10
2022-08-24T10:05:34.623Z,39.10
2022-08-24T10:12:36.029Z,40.00
2022-08-24T10:19:51.780Z,39.00
2022-08-24T10:27:03.570Z,39.30
2022-08-24T10:33:52.153Z,37.40
2022-08-24T10:41:03.788Z,36.10
2022-08-24T10:48:25.726Z,37.20
2022-08-24T10:55:31.043Z,35.50
2022-08-24T11:02:33.064Z,33.30
2022-08-24T11:09:19.879Z,32.80
2022-08-24T11:16:04.309Z,31.40
2022-08-24T11:23:31.027Z,31.40
2022-08-24T11:30:24.230Z,31.20
2022-08-24T11:37:14.274Z,31.00
2022-08-24T11:44:03.663Z,30.10
2022-08-24T11:50:58.212Z,30.70
2022-08-24T11:58:05.653Z,30.40
2022-08-24T12:05:16.274Z,30.50
2022-08-24T12:12:13.199Z,30.80
2022-08-24T12:19:15.615Z,30.90
2022-08-24T12:26:07.764Z,30.60
2022-08-24T12:33:02.970Z,31.00
2022-08-24T12:39:59.889Z,31.00
2022-08-24T12:46:44.559Z,31.20
2022-08-24T12:53:48.009Z,31.00
2022-08-24T13:00:47.354Z,30.90
2022-08-24T13:07:39.842Z,30.80
2022-08-24T13:14:25.756Z,31.20
2022-08-24T13:21:17.019Z,31.50
2022-08-24T13:28:09.365Z,31.50
2022-08-24T13:34:52.107Z,31.10
2022-08-24T13:42:02.772Z,31.70
2022-08-24T13:49:12.273Z,31.70
2022-08-24T13:56:15.942Z,31.50
2022-08-24T14:03:26.515Z,31.80
2022-08-24T14:10:27.205Z,31.20
2022-08-24T14:17:47.328Z,31.70
2022-08-24T14:24:46.234Z,31.70
2022-08-24T14:31:29.897Z,31.40
2022-08-24T14:38:24.447Z,31.50
2022-08-24T14:45:12.812Z,31.50
2022-08-24T14:52:02.933Z,31.30
2022-08-24T14:59:19.017Z,31.20
2022-08-24T15:06:25.619Z,30.80
2022-08-24T15:13:25.981Z,30.90
2022-08-24T15:20:18.615Z,30.50
2022-08-24T15:27:31.568Z,30.50
2022-08-24T15:34:13.960Z,30.50
2022-08-24T15:41:31.550Z,30.50
2022-08-24T15:48:17.535Z,30.50
2022-08-24T15:55:03.435Z,30.60
2022-08-24T16:02:26.360Z,30.50
2022-08-24T16:09:20.915Z,30.50
2022-08-24T16:16:07.296Z,30.60
2022-08-24T16:22:58.970Z,30.20
2022-08-24T16:29:45.962Z,30.40
2022-08-24T16:36:29.914Z,30.10
2022-08-24T16:43:13.313Z,30.10
2022-08-24T16:49:56.175Z,29.90
2022-08-24T16:56:38.586Z,29.80
2022-08-24T17:03:21.087Z,29.60
2022-08-24T17:10:05.729Z,29.70
2022-08-24T17:16:48.491Z,29.60
2022-08-24T17:23:31.865Z,29.40
2022-08-24T17:30:17.026Z,29.30
2022-08-24T17:37:00.103Z,29.20
2022-08-24T17:43:42.629Z,29.00
2022-08-24T17:50:25.190Z,28.80
2022-08-24T17:57:12.224Z,28.60
2022-08-24T18:03:54.748Z,28.40
2022-08-24T18:10:37.100Z,28.30
2022-08-24T18:17:38.865Z,28.20
2022-08-24T18:24:21.302Z,28.00
2022-08-24T18:31:03.696Z,27.90
2022-08-24T18:37:46.123Z,27.70
2022-08-24T18:44:31.759Z,27.50
2022-08-24T18:51:18.643Z,27.30
2022-08-24T18:58:01.061Z,27.10
2022-08-24T19:04:48.038Z,26.90
2022-08-24T19:11:30.394Z,26.70
2022-08-24T19:18:15.941Z,26.50
2022-08-24T19:24:59.020Z,26.20
2022-08-24T19:31:41.643Z,26.10
2022-08-24T19:38:26.122Z,26.00
2022-08-24T19:45:31.208Z,25.80
2022-08-24T19:52:14.182Z,25.60
2022-08-24T19:59:07.960Z,25.50
2022-08-24T20:05:50.782Z,25.40
2022-08-24T20:12:33.288Z,25.20
2022-08-24T20:19:18.478Z,24.90
2022-08-24T20:26:03.262Z,24.80
2022-08-24T20:32:45.699Z,24.80
2022-08-24T20:39:30.620Z,24.80
2022-08-24T20:46:13.169Z,24.70
2022-08-24T20:52:55.834Z,24.50
2022-08-24T20:59:38.295Z,24.30
2022-08-24T21:06:20.765Z,24.10
2022-08-24T21:13:05.238Z,24.00
2022-08-24T21:19:47.809Z,23.90
2022-08-24T21:26:31.726Z,23.70
2022-08-24T21:33:32.893Z,23.40
2022-08-24T21:40:15.295Z,23.20
2022-08-24T21:46:58.412Z,23.30
2022-08-24T21:53:40.837Z,23.10
2022-08-24T22:00:24.431Z,23.00
2022-08-24T22:07:07.318Z,22.70
2022-08-24T22:13:50.732Z,22.30
2022-08-24T22:20:33.182Z,22.10
2022-08-24T22:27:15.560Z,22.10
2022-08-24T22:34:00.107Z,21.90
2022-08-24T22:40:43.808Z,22.00
2022-08-24T22:47:27.803Z,22.00
2022-08-24T22:54:10.987Z,22.00
2022-08-24T23:00:54.004Z,21.70
2022-08-24T23:07:36.474Z,21.70
2022-08-24T23:14:20.616Z,21.60
2022-08-24T23:21:03.087Z,21.50
2022-08-24T23:27:49.354Z,21.40
2022-08-24T23:34:33.194Z,21.40
2022-08-24T23:41:17.751Z,21.40
2022-08-24T23:48:00.165Z,21.30
2022-08-24T23:54:42.566Z,20.90
